createdAt,value
2022-11-21T00:00:29.689Z,76.10
2022-11-21T00:02:35.524Z,78.18
2022-11-21T00:04:39.838Z,89.43
2022-11-21T00:06:44.274Z,69.20
2022-11-21T00:08:48.786Z,68.75
2022-11-21T00:10:53.121Z,66.57
2022-11-21T00:12:58.219Z,69.95
2022-11-21T00:15:02.695Z,80.50
2022-11-21T00:17:06.900Z,77.35
2022-11-21T00:19:12.649Z,75.47
2022-11-21T00:21:19.025Z,80.72
2022-11-21T00:23:23.328Z,59.78
2022-11-21T00:25:27.813Z,53.13
2022-11-21T00:27:32.176Z,70.47
2022-11-21T00:29:36.506Z,61.78
2022-11-21T00:31:41.409Z,59.45
2022-11-21T00:33:46.253Z,49.10
2022-11-21T00:35:51.865Z,52.83
2022-11-21T00:37:56.216Z,50.88
2022-11-21T00:40:00.513Z,47.45
2022-11-21T00:42:05.079Z,49.88
2022-11-21T00:44:09.579Z,47.10
2022-11-21T00:46:14.014Z,42.08
2022-11-21T00:48:18.498Z,33.35
2022-11-21T00:50:22.743Z,39.05
2022-11-21T00:52:28.556Z,34.65
2022-11-21T00:54:33.137Z,33.10
2022-11-21T00:56:37.392Z,35.10
2022-11-21T00:58:41.857Z,38.67
2022-11-21T01:00:46.187Z,28.55
2022-11-21T01:02:50.417Z,29.90
2022-11-21T01:04:54.922Z,24.92
2022-11-21T01:06:59.371Z,32.35
2022-11-21T01:09:05.207Z,25.77
2022-11-21T01:11:11.865Z,31.67
2022-11-21T01:13:16.105Z,20.35
2022-11-21T01:15:20.475Z,20.02
2022-11-21T01:17:24.735Z,22.23
2022-11-21T01:19:29.030Z,21.73
2022-11-21T01:21:34.079Z,18.25
2022-11-21T01:23:38.293Z,18.05
2022-11-21T01:25:44.101Z,22.55
2022-11-21T01:27:48.306Z,18.48
2022-11-21T01:29:52.968Z,17.55
2022-11-21T01:31:57.678Z,15.43
2022-11-21T01:34:03.610Z,14.02
2022-11-21T01:36:12.119Z,11.82
2022-11-21T01:38:16.516Z,11.95
2022-11-21T01:40:21.074Z,12.10
2022-11-21T01:42:26.833Z,14.35
2022-11-21T01:44:48.049Z,10.30
2022-11-21T01:46:53.405Z,10.13
2022-11-21T01:49:03.486Z,8.80
2022-11-21T01:51:13.135Z,9.10
2022-11-21T01:53:18.146Z,9.57
2022-11-21T01:55:22.602Z,7.35
2022-11-21T01:57:31.803Z,14.25
2022-11-21T01:59:42.146Z,6.60
2022-11-21T02:01:48.832Z,8.02
2022-11-21T02:03:55.381Z,6.07
2022-11-21T02:06:00.756Z,6.57
2022-11-21T02:08:09.301Z,8.68
2022-11-21T02:10:15.028Z,7.97
2022-11-21T02:12:24.974Z,4.75
2022-11-21T02:14:51.286Z,6.25
2022-11-21T02:16:58.368Z,9.43
2022-11-21T02:19:02.746Z,6.57
2022-11-21T02:21:14.918Z,5.32
2022-11-21T02:23:26.789Z,9.73
2022-11-21T02:25:34.392Z,5.53
2022-11-21T02:27:39.133Z,5.13
2022-11-21T02:29:44.511Z,4.57
2022-11-21T02:31:48.976Z,7.22
2022-11-21T02:33:53.605Z,8.95
2022-11-21T02:35:59.739Z,7.07
2022-11-21T02:38:09.384Z,4.43
2022-11-21T02:40:18.614Z,5.07
2022-11-21T02:42:30.126Z,4.83
2022-11-21T02:44:40.546Z,4.93
2022-11-21T02:46:50.324Z,2.85
2022-11-21T02:48:55.022Z,3.28
2022-11-21T02:50:59.261Z,2.53
2022-11-21T02:53:03.812Z,1.73
2022-11-21T02:55:09.459Z,4.07
2022-11-21T02:57:13.837Z,2.42
2022-11-21T02:59:20.740Z,1.40
2022-11-21T03:01:25.252Z,1.35
2022-11-21T03:03:29.438Z,2.13
2022-11-21T03:05:34.290Z,0.55
2022-11-21T03:07:38.696Z,1.65
2022-11-21T03:09:43.253Z,1.08
2022-11-21T03:11:47.706Z,1.55
2022-11-21T03:13:52.203Z,0.70
2022-11-21T03:15:57.990Z,4.97
2022-11-21T03:18:03.395Z,1.08
2022-11-21T03:20:09.041Z,1.50
2022-11-21T03:22:15.646Z,0.50
2022-11-21T03:24:20.049Z,0.60
2022-11-21T03:26:24.341Z,1.10
2022-11-21T03:28:28.660Z,0.80
2022-11-21T03:30:33.033Z,1.48
2022-11-21T03:32:38.655Z,0.80
2022-11-21T03:34:43.029Z,2.58
2022-11-21T03:36:47.588Z,0.98
2022-11-21T03:38:51.873Z,1.58
2022-11-21T03:40:56.381Z,1.67
2022-11-21T03:43:06.084Z,2.13
2022-11-21T03:45:11.069Z,3.00
2022-11-21T03:47:15.271Z,2.95
2022-11-21T03:49:21.021Z,3.22
2022-11-21T03:51:25.860Z,3.13
2022-11-21T03:53:30.271Z,2.88
2022-11-21T03:55:34.528Z,3.53
2022-11-21T03:57:38.935Z,7.15
2022-11-21T03:59:43.171Z,3.92
2022-11-21T04:01:48.107Z,5.47
2022-11-21T04:03:53.343Z,4.90
2022-11-21T04:05:59.152Z,6.85
2022-11-21T04:08:03.423Z,6.80
2022-11-21T04:10:08.354Z,6.20
2022-11-21T04:12:12.859Z,7.57
2022-11-21T04:14:17.089Z,11.15
2022-11-21T04:16:22.084Z,8.38
2022-11-21T04:18:26.355Z,9.68
2022-11-21T04:20:30.668Z,12.07
2022-11-21T04:22:36.414Z,9.38
2022-11-21T04:24:40.692Z,12.93
2022-11-21T04:26:45.005Z,10.40
2022-11-21T04:28:49.194Z,8.90
2022-11-21T04:30:55.180Z,17.45
2022-11-21T04:33:00.091Z,12.48
2022-11-21T04:35:04.353Z,12.93
2022-11-21T04:37:11.566Z,11.45
2022-11-21T04:39:17.519Z,9.98
2022-11-21T04:41:21.903Z,8.45
2022-11-21T04:43:26.137Z,10.40
2022-11-21T04:45:30.659Z,7.78
2022-11-21T04:47:37.835Z,90.93
2022-11-21T04:49:42.223Z,54.78
2022-11-21T04:51:46.543Z,32.05
2022-11-21T04:53:51.092Z,13.18
2022-11-21T04:55:56.804Z,6.72
2022-11-21T04:58:01.428Z,45.97
2022-11-21T05:00:06.679Z,29.67
2022-11-21T05:02:11.480Z,11.65
2022-11-21T05:04:15.764Z,8.38
2022-11-21T05:06:20.259Z,12.82
2022-11-21T05:08:24.515Z,10.57
2022-11-21T05:10:29.056Z,7.30
2022-11-21T05:12:52.465Z,12.25
2022-11-21T05:14:56.849Z,9.20
2022-11-21T05:17:01.185Z,10.10
2022-11-21T05:19:05.413Z,7.13
2022-11-21T05:21:09.795Z,4.88
2022-11-21T05:23:14.549Z,6.93
2022-11-21T05:25:21.083Z,3.85
2022-11-21T05:27:25.439Z,3.53
2022-11-21T05:29:32.159Z,6.85
2022-11-21T05:31:36.893Z,3.85
2022-11-21T05:33:41.167Z,5.57
2022-11-21T05:35:45.506Z,4.68
2022-11-21T05:37:49.779Z,4.57
2022-11-21T05:39:54.032Z,3.03
2022-11-21T05:42:02.680Z,4.28
2022-11-21T05:44:06.445Z,4.45
2022-11-21T05:46:11.933Z,4.97
2022-11-21T05:48:16.050Z,4.30
2022-11-21T05:50:20.195Z,4.72
2022-11-21T05:52:24.454Z,6.32
2022-11-21T05:54:28.814Z,6.40
2022-11-21T05:56:33.329Z,7.72
2022-11-21T05:58:37.516Z,5.45
2022-11-21T06:00:42.463Z,4.13
2022-11-21T06:03:06.927Z,6.18
2022-11-21T06:05:11.270Z,3.95
2022-11-21T06:07:15.560Z,4.60
2022-11-21T06:09:19.903Z,3.72
2022-11-21T06:11:24.048Z,4.13
2022-11-21T06:13:28.868Z,5.75
2022-11-21T06:15:33.459Z,4.32
2022-11-21T06:17:37.570Z,4.80
2022-11-21T06:19:43.238Z,5.82
2022-11-21T06:21:48.088Z,5.70
2022-11-21T06:23:53.541Z,5.05
2022-11-21T06:25:59.473Z,4.05
2022-11-21T06:28:03.835Z,6.88
2022-11-21T06:30:10.255Z,7.22
2022-11-21T06:32:14.646Z,6.97
2022-11-21T06:34:19.391Z,5.70
2022-11-21T06:36:26.500Z,7.03
2022-11-21T06:38:30.876Z,5.30
2022-11-21T06:40:35.151Z,4.75
2022-11-21T06:42:39.825Z,8.48
2022-11-21T06:44:45.623Z,7.25
2022-11-21T06:46:51.599Z,13.80
2022-11-21T06:48:56.298Z,8.32
2022-11-21T06:51:00.516Z,6.40
2022-11-21T06:53:06.392Z,9.27
2022-11-21T06:55:11.851Z,10.05
2022-11-21T06:57:17.348Z,9.48
2022-11-21T06:59:21.676Z,6.35
2022-11-21T07:01:26.613Z,9.13
2022-11-21T07:03:31.299Z,6.88
2022-11-21T07:05:35.727Z,9.43
2022-11-21T07:07:40.331Z,6.65
2022-11-21T07:09:47.967Z,8.07
2022-11-21T07:11:55.449Z,7.25
2022-11-21T07:13:58.618Z,7.80
2022-11-21T07:16:04.830Z,7.40
2022-11-21T07:18:09.201Z,10.07
2022-11-21T07:20:13.766Z,5.53
2022-11-21T07:22:17.811Z,7.18
2022-11-21T07:24:21.999Z,10.27
2022-11-21T07:26:28.093Z,7.78
2022-11-21T07:28:32.871Z,7.63
2022-11-21T07:30:37.605Z,7.82
2022-11-21T07:32:42.543Z,7.15
2022-11-21T07:34:46.770Z,9.95
2022-11-21T07:36:51.109Z,18.73
2022-11-21T07:38:55.539Z,8.45
2022-11-21T07:40:59.922Z,8.32
2022-11-21T07:43:10.849Z,5.93
2022-11-21T07:45:16.327Z,9.15
2022-11-21T07:47:20.456Z,10.27
2022-11-21T07:49:24.825Z,8.80
2022-11-21T07:51:28.968Z,9.50
2022-11-21T07:53:33.230Z,9.25
2022-11-21T07:55:40.608Z,8.20
2022-11-21T07:57:45.157Z,12.55
2022-11-21T07:59:51.032Z,9.90
2022-11-21T08:01:55.398Z,9.52
2022-11-21T08:03:59.874Z,8.98
2022-11-21T08:06:04.956Z,12.65
2022-11-21T08:08:09.804Z,7.65
2022-11-21T08:10:14.028Z,8.90
2022-11-21T08:12:18.764Z,6.80
2022-11-21T08:14:22.950Z,6.28
2022-11-21T08:16:32.886Z,9.38
2022-11-21T08:20:41.930Z,6.68
2022-11-21T08:22:46.093Z,8.18
2022-11-21T08:24:50.184Z,9.13
2022-11-21T08:26:54.881Z,9.93
2022-11-21T08:29:00.183Z,5.95
2022-11-21T08:31:05.874Z,9.50
2022-11-21T08:33:11.318Z,6.30
2022-11-21T08:35:15.512Z,8.48
2022-11-21T08:37:19.671Z,5.40
2022-11-21T08:39:26.073Z,6.07
2022-11-21T08:41:48.152Z,6.68
2022-11-21T08:43:57.397Z,9.10
2022-11-21T08:46:04.582Z,6.32
2022-11-21T08:48:13.047Z,6.43
2022-11-21T08:50:17.323Z,6.28
2022-11-21T08:52:21.490Z,8.50
2022-11-21T08:54:26.333Z,9.20
2022-11-21T08:56:30.852Z,6.05
2022-11-21T08:58:34.976Z,7.07
2022-11-21T09:00:41.401Z,5.22
2022-11-21T09:02:45.502Z,5.65
2022-11-21T09:04:51.348Z,8.65
2022-11-21T09:06:55.475Z,7.63
2022-11-21T09:08:59.541Z,4.65
2022-11-21T09:11:06.642Z,5.10
2022-11-21T09:13:13.481Z,5.53
2022-11-21T09:15:35.126Z,4.32
2022-11-21T09:17:56.940Z,4.95
2022-11-21T09:20:02.823Z,4.25
2022-11-21T09:22:06.987Z,5.93
2022-11-21T09:24:11.027Z,4.35
2022-11-21T09:26:15.289Z,3.42
2022-11-21T09:28:19.375Z,4.30
2022-11-21T09:30:23.424Z,4.28
2022-11-21T09:32:27.504Z,10.07
2022-11-21T09:34:31.881Z,7.07
2022-11-21T09:36:37.757Z,6.05
2022-11-21T09:38:41.897Z,7.15
2022-11-21T09:40:48.970Z,5.28
2022-11-21T09:43:06.189Z,4.70
2022-11-21T09:45:14.929Z,4.38
2022-11-21T09:47:25.422Z,2.78
2022-11-21T09:49:31.220Z,4.40
2022-11-21T09:51:40.027Z,4.38
2022-11-21T09:53:54.280Z,5.13
2022-11-21T09:56:00.995Z,5.18
2022-11-21T09:58:10.482Z,3.95
2022-11-21T10:00:20.760Z,6.13
2022-11-21T10:02:26.224Z,5.03
2022-11-21T10:04:30.815Z,5.30
2022-11-21T10:06:44.123Z,5.13
2022-11-21T10:08:57.028Z,6.53
2022-11-21T10:11:19.338Z,9.73
2022-11-21T10:13:40.285Z,7.60
2022-11-21T10:15:57.692Z,6.32
2022-11-21T10:18:14.857Z,10.23
2022-11-21T10:20:30.372Z,8.98
2022-11-21T10:22:54.777Z,8.70
2022-11-21T10:25:07.696Z,7.97
2022-11-21T10:27:17.302Z,7.50
2022-11-21T10:29:25.876Z,7.93
2022-11-21T10:31:32.554Z,6.60
2022-11-21T10:33:40.416Z,6.13
2022-11-21T10:35:48.375Z,7.13
2022-11-21T10:37:57.821Z,6.10
2022-11-21T10:40:15.885Z,6.93
2022-11-21T10:42:32.077Z,8.63
2022-11-21T10:44:53.586Z,6.60
2022-11-21T10:46:58.409Z,8.30
2022-11-21T10:49:03.806Z,7.82
2022-11-21T10:51:21.317Z,8.75
2022-11-21T10:53:45.365Z,8.90
2022-11-21T10:56:00.848Z,8.85
2022-11-21T10:58:18.883Z,9.20
2022-11-21T11:00:25.607Z,10.05
2022-11-21T11:02:29.714Z,12.73
2022-11-21T11:04:43.898Z,12.57
2022-11-21T11:06:51.908Z,17.15
2022-11-21T11:08:57.512Z,12.57
2022-11-21T11:11:08.576Z,13.90
2022-11-21T11:13:46.222Z,14.73
2022-11-21T11:16:02.957Z,16.20
2022-11-21T11:18:15.605Z,17.30
2022-11-21T11:20:38.903Z,17.83
2022-11-21T11:22:42.959Z,14.25
2022-11-21T11:24:59.120Z,18.10
2022-11-21T11:27:04.955Z,21.17
2022-11-21T11:29:11.631Z,25.42
2022-11-21T11:31:15.833Z,20.98
2022-11-21T11:33:35.362Z,17.70
2022-11-21T11:35:40.491Z,20.08
2022-11-21T11:37:51.877Z,18.92
2022-11-21T11:40:08.557Z,19.88
2022-11-21T11:43:05.717Z,17.75
2022-11-21T11:45:35.206Z,20.98
2022-11-21T11:47:48.935Z,26.45
2022-11-21T11:50:12.397Z,27.57
2022-11-21T11:52:16.995Z,23.05
2022-11-21T11:54:25.834Z,23.50
2022-11-21T11:56:37.121Z,25.42
2022-11-21T11:58:45.189Z,29.85
2022-11-21T12:00:55.466Z,25.90
2022-11-21T12:03:05.474Z,30.45
2022-11-21T12:09:54.521Z,26.77
2022-11-21T12:12:08.282Z,26.55
2022-11-21T12:14:48.803Z,25.38
2022-11-21T12:16:54.214Z,25.20
2022-11-21T12:19:04.532Z,24.60
2022-11-21T12:23:15.353Z,23.70
2022-11-21T12:25:23.002Z,29.38
2022-11-21T12:27:33.081Z,22.75
2022-11-21T12:29:50.726Z,24.20
2022-11-21T12:32:16.389Z,21.98
2022-11-21T12:34:43.717Z,19.98
2022-11-21T12:36:55.030Z,23.83
2022-11-21T12:39:30.826Z,20.45
2022-11-21T12:42:00.047Z,22.23
2022-11-21T12:44:14.964Z,25.20
2022-11-21T12:46:28.004Z,27.63
2022-11-21T12:49:14.206Z,24.67
2022-11-21T12:52:03.525Z,23.60
2022-11-21T12:54:33.424Z,26.58
2022-11-21T12:56:47.811Z,28.85
2022-11-21T12:58:54.970Z,28.30
2022-11-21T13:01:22.040Z,30.42
2022-11-21T13:03:48.822Z,28.17
2022-11-21T13:05:56.624Z,32.38
2022-11-21T13:08:04.704Z,31.88
2022-11-21T13:10:15.595Z,32.08
2022-11-21T13:12:26.916Z,26.73
2022-11-21T13:14:41.460Z,29.80
2022-11-21T13:16:54.509Z,33.40
2022-11-21T13:18:59.293Z,26.48
2022-11-21T13:21:03.948Z,34.20
2022-11-21T13:23:36.526Z,32.30
2022-11-21T13:25:49.641Z,33.25
2022-11-21T13:27:54.990Z,30.55
2022-11-21T13:30:34.788Z,34.55
2022-11-21T13:32:42.048Z,31.63
2022-11-21T13:34:46.525Z,27.38
2022-11-21T13:36:50.977Z,29.05
2022-11-21T13:39:33.999Z,29.90
2022-11-21T13:42:20.400Z,28.52
2022-11-21T13:44:38.915Z,28.60
2022-11-21T13:47:02.269Z,19.05
2022-11-21T13:49:12.921Z,16.08
2022-11-21T13:51:59.591Z,15.48
2022-11-21T13:54:38.537Z,14.85
2022-11-21T13:56:57.375Z,12.05
2022-11-21T13:59:12.340Z,11.40
2022-11-21T14:01:52.054Z,12.00
2022-11-21T14:04:27.707Z,11.45
2022-11-21T14:06:37.767Z,14.43
2022-11-21T14:08:43.872Z,8.48
2022-11-21T14:10:51.553Z,8.98
2022-11-21T14:12:57.343Z,9.10
2022-11-21T14:15:27.818Z,9.40
2022-11-21T14:17:45.027Z,14.77
2022-11-21T14:19:52.573Z,11.52
2022-11-21T14:21:57.043Z,11.75
2022-11-21T14:24:05.488Z,17.40
2022-11-21T14:26:18.530Z,11.85
2022-11-21T14:28:26.427Z,14.20
2022-11-21T14:30:34.198Z,13.98
2022-11-21T14:32:38.489Z,14.95
2022-11-21T14:34:42.721Z,14.70
2022-11-21T14:36:49.618Z,10.60
2022-11-21T14:39:29.108Z,12.63
2022-11-21T14:41:28.295Z,11.02
2022-11-21T14:43:34.694Z,9.93
2022-11-21T14:45:40.620Z,9.95
2022-11-21T14:47:52.230Z,14.07
2022-11-21T14:50:01.079Z,11.48
2022-11-21T14:52:22.197Z,17.52
2022-11-21T14:54:33.890Z,12.32
2022-11-21T14:56:38.640Z,9.98
2022-11-21T14:58:42.961Z,8.85
2022-11-21T15:01:03.133Z,9.98
2022-11-21T15:03:22.232Z,12.07
2022-11-21T15:06:00.324Z,11.73
2022-11-21T15:08:23.844Z,12.13
2022-11-21T15:10:30.857Z,10.57
2022-11-21T15:12:45.775Z,10.68
2022-11-21T15:14:54.244Z,13.13
2022-11-21T15:17:04.183Z,12.73
2022-11-21T15:19:11.052Z,11.23
2022-11-21T15:21:17.880Z,11.20
2022-11-21T15:23:32.479Z,10.60
2022-11-21T15:25:47.645Z,13.82
2022-11-21T15:27:54.476Z,16.00
2022-11-21T15:30:17.670Z,12.15
2022-11-21T15:32:24.704Z,12.57
2022-11-21T15:34:36.361Z,13.35
2022-11-21T15:36:41.194Z,11.23
2022-11-21T15:38:51.818Z,12.73
2022-11-21T15:41:04.782Z,10.48
2022-11-21T15:43:10.418Z,11.90
2022-11-21T15:45:27.944Z,10.90
2022-11-21T15:47:32.661Z,13.43
2022-11-21T15:49:37.445Z,10.73
2022-11-21T15:52:06.049Z,15.10
2022-11-21T15:54:13.253Z,10.82
2022-11-21T15:56:23.130Z,10.80
2022-11-21T15:58:28.130Z,11.65
2022-11-21T16:00:32.596Z,12.27
2022-11-21T16:02:38.032Z,13.68
2022-11-21T16:04:42.860Z,10.45
2022-11-21T16:06:48.044Z,12.38
2022-11-21T16:08:52.654Z,11.45
2022-11-21T16:10:58.515Z,11.35
2022-11-21T16:13:02.850Z,12.05
2022-11-21T16:15:08.376Z,12.35
2022-11-21T16:17:13.119Z,13.35
2022-11-21T16:19:17.996Z,11.60
2022-11-21T16:21:22.690Z,12.85
2022-11-21T16:23:37.692Z,14.00
2022-11-21T16:25:53.574Z,13.95
2022-11-21T16:28:05.692Z,14.25
2022-11-21T16:30:12.437Z,16.38
2022-11-21T16:32:16.876Z,14.82
2022-11-21T16:34:22.704Z,20.20
2022-11-21T16:36:28.503Z,13.05
2022-11-21T16:38:34.538Z,12.90
2022-11-21T16:40:40.929Z,11.35
2022-11-21T16:42:47.015Z,10.38
2022-11-21T16:44:56.117Z,9.80
2022-11-21T16:47:06.660Z,10.15
2022-11-21T16:49:16.203Z,12.88
2022-11-21T16:51:22.439Z,8.88
2022-11-21T16:53:26.893Z,10.65
2022-11-21T16:55:31.946Z,8.30
2022-11-21T16:57:37.549Z,13.32
2022-11-21T16:59:42.171Z,11.68
2022-11-21T17:01:47.974Z,10.93
2022-11-21T17:03:54.484Z,9.18
2022-11-21T17:05:59.623Z,15.55
2022-11-21T17:08:04.002Z,11.40
2022-11-21T17:10:09.969Z,10.95
2022-11-21T17:12:14.372Z,11.65
2022-11-21T17:14:18.720Z,13.73
2022-11-21T17:16:25.091Z,14.73
2022-11-21T17:18:32.119Z,13.65
2022-11-21T17:20:37.369Z,13.15
2022-11-21T17:22:42.859Z,14.35
2022-11-21T17:24:47.439Z,14.52
2022-11-21T17:26:53.826Z,12.65
2022-11-21T17:29:01.194Z,12.98
2022-11-21T17:31:07.913Z,14.02
2022-11-21T17:33:12.309Z,16.23
2022-11-21T17:35:18.788Z,15.80
2022-11-21T17:37:26.282Z,17.13
2022-11-21T17:39:32.540Z,18.50
2022-11-21T17:41:38.207Z,18.85
2022-11-21T17:43:44.652Z,19.77
2022-11-21T17:45:51.116Z,19.45
2022-11-21T17:47:56.455Z,17.38
2022-11-21T17:50:05.974Z,17.77
2022-11-21T17:52:14.012Z,16.92
2022-11-21T17:54:18.894Z,17.25
2022-11-21T17:56:25.275Z,17.48
2022-11-21T17:58:31.377Z,18.33
2022-11-21T18:00:35.743Z,19.48
2022-11-21T18:02:40.348Z,18.70
2022-11-21T18:04:45.209Z,19.80
2022-11-21T18:06:50.018Z,18.70
2022-11-21T18:08:57.718Z,22.60
2022-11-21T18:11:05.210Z,17.20
2022-11-21T18:13:10.154Z,17.10
2022-11-21T18:15:14.604Z,16.55
2022-11-21T18:17:18.994Z,19.17
2022-11-21T18:19:24.319Z,16.77
2022-11-21T18:21:31.433Z,19.23
2022-11-21T18:23:36.746Z,17.63
2022-11-21T18:25:43.112Z,20.02
2022-11-21T18:27:54.098Z,15.18
2022-11-21T18:29:59.611Z,19.77
2022-11-21T18:32:08.128Z,17.70
2022-11-21T18:34:12.741Z,17.20
2022-11-21T18:36:17.670Z,18.42
2022-11-21T18:38:46.681Z,19.55
2022-11-21T18:40:48.216Z,17.10
2022-11-21T18:42:53.485Z,16.88
2022-11-21T18:44:57.754Z,16.38
2022-11-21T18:47:01.971Z,16.73
2022-11-21T18:49:08.200Z,16.67
2022-11-21T18:51:15.446Z,21.08
2022-11-21T18:53:22.464Z,22.42
2022-11-21T18:55:27.994Z,21.27
2022-11-21T18:57:34.923Z,24.05
2022-11-21T18:59:39.604Z,20.80
2022-11-21T19:01:44.266Z,19.20
2022-11-21T19:03:49.204Z,20.45
2022-11-21T19:05:53.803Z,17.73
2022-11-21T19:07:58.605Z,19.60
2022-11-21T19:10:27.858Z,21.00
2022-11-21T19:12:36.310Z,18.20
2022-11-21T19:14:46.711Z,16.85
2022-11-21T19:16:51.135Z,19.30
2022-11-21T19:19:33.485Z,20.13
2022-11-21T19:21:27.512Z,21.08
2022-11-21T19:23:33.735Z,20.17
2022-11-21T19:25:42.284Z,24.42
2022-11-21T19:27:47.031Z,24.58
2022-11-21T19:29:55.660Z,44.03
2022-11-21T19:32:01.669Z,42.30
2022-11-21T19:34:08.398Z,69.00
2022-11-21T19:36:16.055Z,82.60
2022-11-21T19:38:22.630Z,58.85
2022-11-21T19:40:46.991Z,39.22
2022-11-21T19:42:51.434Z,32.03
2022-11-21T19:45:01.013Z,26.55
2022-11-21T19:47:06.356Z,33.55
2022-11-21T19:49:12.926Z,27.83
2022-11-21T19:51:18.734Z,22.50
2022-11-21T19:53:24.058Z,21.65
2022-11-21T19:55:31.148Z,18.40
2022-11-21T19:57:39.951Z,23.52
2022-11-21T19:59:46.857Z,19.25
2022-11-21T20:01:54.243Z,21.30
2022-11-21T20:04:03.437Z,19.27
2022-11-21T20:06:15.467Z,22.35
2022-11-21T20:08:22.457Z,21.85
2022-11-21T20:10:27.920Z,21.15
2022-11-21T20:12:32.601Z,24.42
2022-11-21T20:14:37.028Z,22.30
2022-11-21T20:16:45.804Z,19.52
2022-11-21T20:18:53.257Z,20.73
2022-11-21T20:20:58.323Z,21.77
2022-11-21T20:23:03.339Z,23.77
2022-11-21T20:25:09.271Z,21.45
2022-11-21T20:27:15.211Z,21.00
2022-11-21T20:29:20.705Z,21.67
2022-11-21T20:31:27.258Z,18.77
2022-11-21T20:33:35.728Z,23.73
2022-11-21T20:35:44.011Z,21.35
2022-11-21T20:37:48.222Z,19.00
2022-11-21T20:39:53.341Z,22.00
2022-11-21T20:41:58.293Z,24.20
2022-11-21T20:46:30.249Z,22.13
2022-11-21T20:48:36.726Z,46.55
2022-11-21T20:55:34.052Z,81.03
2022-11-21T20:57:38.316Z,79.68
2022-11-21T20:59:42.740Z,76.57
2022-11-21T21:01:47.352Z,68.07
2022-11-21T21:03:52.002Z,81.80
2022-11-21T21:06:02.816Z,75.25
2022-11-21T21:08:11.117Z,67.10
2022-11-21T21:10:15.698Z,61.83
2022-11-21T21:12:24.073Z,55.30
2022-11-21T21:14:28.590Z,41.35
2022-11-21T21:16:34.635Z,56.53
2022-11-21T21:18:39.886Z,32.55
2022-11-21T21:21:09.536Z,31.08
2022-11-21T21:23:11.531Z,33.92
2022-11-21T21:25:16.067Z,27.45
2022-11-21T21:27:20.611Z,25.02
2022-11-21T21:29:25.275Z,29.95
2022-11-21T21:31:30.868Z,28.90
2022-11-21T21:33:35.593Z,28.85
2022-11-21T21:35:40.137Z,29.98
2022-11-21T21:37:45.100Z,27.50
2022-11-21T21:39:51.475Z,32.42
2022-11-21T21:41:56.937Z,31.15
2022-11-21T21:44:01.246Z,27.08
2022-11-21T21:46:06.895Z,40.42
2022-11-21T21:48:11.762Z,40.70
2022-11-21T21:50:16.311Z,28.42
2022-11-21T21:52:22.190Z,32.13
2022-11-21T21:54:26.647Z,28.92
2022-11-21T21:56:32.767Z,32.08
2022-11-21T21:58:39.458Z,30.88
2022-11-21T22:00:44.596Z,35.50
2022-11-21T22:02:48.828Z,28.38
2022-11-21T22:04:53.204Z,34.28
2022-11-21T22:06:58.621Z,41.83
2022-11-21T22:09:03.287Z,37.90
2022-11-21T22:11:13.692Z,41.67
2022-11-21T22:13:19.685Z,39.00
2022-11-21T22:15:24.023Z,44.78
2022-11-21T22:17:28.366Z,34.08
2022-11-21T22:19:32.944Z,37.03
2022-11-21T22:21:39.485Z,39.35
2022-11-21T22:24:02.991Z,38.40
2022-11-21T22:26:11.022Z,50.03
2022-11-21T22:28:16.247Z,38.05
2022-11-21T22:30:23.529Z,38.50
2022-11-21T22:32:28.567Z,46.13
2022-11-21T22:34:33.182Z,45.60
2022-11-21T22:36:37.985Z,43.80
2022-11-21T22:38:42.432Z,43.88
2022-11-21T22:40:47.364Z,50.55
2022-11-21T22:42:52.825Z,52.95
2022-11-21T22:44:57.159Z,43.72
2022-11-21T22:47:03.045Z,47.67
2022-11-21T22:49:11.804Z,41.67
2022-11-21T22:51:17.427Z,42.45
2022-11-21T22:53:21.823Z,42.20
2022-11-21T22:55:26.549Z,43.28
2022-11-21T22:57:31.087Z,45.60
2022-11-21T22:59:35.942Z,46.92
2022-11-21T23:01:40.988Z,52.95
2022-11-21T23:03:47.653Z,53.05
2022-11-21T23:06:00.817Z,48.50
2022-11-21T23:08:09.054Z,39.83
2022-11-21T23:10:14.803Z,48.58
2022-11-21T23:12:19.034Z,37.08
2022-11-21T23:14:24.560Z,33.92
2022-11-21T23:16:29.751Z,37.20
2022-11-21T23:18:34.744Z,34.33
2022-11-21T23:20:41.817Z,33.47
2022-11-21T23:22:46.129Z,36.10
2022-11-21T23:24:50.389Z,33.83
2022-11-21T23:26:54.863Z,35.72
2022-11-21T23:29:06.696Z,32.40
2022-11-21T23:31:12.972Z,33.05
2022-11-21T23:33:17.619Z,34.33
2022-11-21T23:35:21.849Z,36.60
2022-11-21T23:37:27.785Z,32.88
2022-11-21T23:39:32.409Z,30.48
2022-11-21T23:41:37.317Z,33.88
2022-11-21T23:43:42.342Z,29.35
2022-11-21T23:45:50.953Z,31.33
2022-11-21T23:47:55.234Z,34.35
2022-11-21T23:50:00.117Z,33.42
2022-11-21T23:52:04.499Z,36.97
2022-11-21T23:54:10.396Z,37.85
2022-11-21T23:56:14.747Z,36.60
2022-11-21T23:58:20.051Z,34.72
